createdAt,value
2018-09-03T00:00:05.651Z,16.49
2018-09-03T00:01:05.597Z,16.28
2018-09-03T00:02:05.595Z,16.36
2018-09-03T00:03:05.601Z,16.24
2018-09-03T00:04:05.584Z,16.36
2018-09-03T00:05:05.620Z,16.4
2018-09-03T00:06:05.587Z,16.36
2018-09-03T00:07:05.631Z,16.46
2018-09-03T00:08:05.646Z,16.46
2018-09-03T00:09:05.647Z,16.47
2018-09-03T00:10:05.625Z,16.34
2018-09-03T00:11:05.653Z,16.44
2018-09-03T00:12:05.591Z,16.44
2018-09-03T00:13:05.596Z,16.44
2018-09-03T00:14:05.603Z,16.43
2018-09-03T00:15:05.649Z,16.51
2018-09-03T00:16:05.644Z,16.44
2018-09-03T00:17:05.596Z,16.44
2018-09-03T00:18:05.665Z,16.44
2018-09-03T00:19:06.594Z,16.43
2018-09-03T00:20:05.693Z,16.55
2018-09-03T00:21:05.625Z,16.49
2018-09-03T00:22:05.634Z,16.55
2018-09-03T00:23:05.648Z,16.46
2018-09-03T00:24:20.527Z,16.41
2018-09-03T00:25:05.644Z,16.5
2018-09-03T00:26:05.636Z,16.5
2018-09-03T00:27:05.633Z,16.46
2018-09-03T00:28:05.687Z,16.44
2018-09-03T00:29:05.669Z,16.47
2018-09-03T00:30:05.746Z,16.4
2018-09-03T00:31:05.696Z,16.54
2018-09-03T00:32:05.635Z,16.58
2018-09-03T00:33:05.661Z,16.59
2018-09-03T00:34:05.669Z,16.59
2018-09-03T00:35:05.677Z,16.49
2018-09-03T00:36:05.652Z,16.55
2018-09-03T00:37:05.663Z,16.55
2018-09-03T00:38:05.672Z,16.54
2018-09-03T00:39:05.644Z,16.54
2018-09-03T00:40:05.678Z,16.51
2018-09-03T00:41:05.645Z,16.43
2018-09-03T00:42:05.653Z,16.59
2018-09-03T00:43:05.667Z,16.57
2018-09-03T00:44:05.665Z,16.47
2018-09-03T00:45:05.637Z,16.49
2018-09-03T00:46:05.650Z,16.51
2018-09-03T00:47:06.742Z,16.55
2018-09-03T00:48:06.330Z,16.43
2018-09-03T00:49:06.034Z,16.41
2018-09-03T00:50:05.674Z,16.46
2018-09-03T00:51:05.694Z,16.44
2018-09-03T00:52:05.718Z,16.41
2018-09-03T00:53:05.738Z,16.4
2018-09-03T00:54:05.676Z,16.39
2018-09-03T00:55:05.708Z,16.32
2018-09-03T00:56:05.675Z,16.36
2018-09-03T00:57:05.685Z,16.4
2018-09-03T00:58:05.689Z,16.26
2018-09-03T00:59:05.706Z,16.28
2018-09-03T01:00:05.689Z,16.26
2018-09-03T01:01:05.676Z,16.24
2018-09-03T01:02:05.685Z,16.12
2018-09-03T01:03:05.700Z,16.21
2018-09-03T01:04:05.737Z,16.16
2018-09-03T01:05:05.785Z,16.18
2018-09-03T01:06:05.712Z,16.26
2018-09-03T01:07:05.700Z,16.16
2018-09-03T01:08:05.828Z,16.16
2018-09-03T01:09:05.705Z,16.17
2018-09-03T01:10:05.707Z,16.26
2018-09-03T01:11:05.715Z,16.21
2018-09-03T01:12:05.716Z,16.26
2018-09-03T01:13:05.724Z,16.25
2018-09-03T01:14:05.700Z,16.32
2018-09-03T01:15:05.708Z,16.25
2018-09-03T01:16:05.746Z,16.37
2018-09-03T01:17:05.727Z,16.36
2018-09-03T01:18:05.767Z,16.29
2018-09-03T01:19:05.700Z,16.29
2018-09-03T01:20:05.708Z,16.32
2018-09-03T01:21:05.715Z,16.34
2018-09-03T01:22:05.733Z,16.24
2018-09-03T01:23:05.729Z,16.36
2018-09-03T01:24:05.867Z,16.36
2018-09-03T01:25:05.814Z,16.25
2018-09-03T01:26:05.707Z,16.34
2018-09-03T01:27:05.753Z,16.32
2018-09-03T01:30:15.279Z,16.18
2018-09-03T01:30:27.528Z,16.26
2018-09-03T01:31:27.545Z,16.25
2018-09-03T01:32:27.529Z,16.25
2018-09-03T01:33:27.830Z,16.28
2018-09-03T01:34:27.534Z,16.29
2018-09-03T01:35:27.537Z,16.29
2018-09-03T01:36:27.543Z,16.17
2018-09-03T01:37:27.516Z,16.25
2018-09-03T01:38:27.534Z,16.22
2018-09-03T01:39:27.534Z,16.17
2018-09-03T01:40:27.508Z,16.16
2018-09-03T01:41:27.548Z,16.24
2018-09-03T01:42:27.515Z,16.18
2018-09-03T01:43:27.526Z,16.17
2018-09-03T01:44:27.534Z,16.13
2018-09-03T01:45:27.569Z,16.1
2018-09-03T01:46:27.548Z,16.16
2018-09-03T01:47:27.558Z,16.17
2018-09-03T01:48:27.567Z,16.17
2018-09-03T01:49:27.543Z,16.17
2018-09-03T01:50:27.568Z,16.16
2018-09-03T01:51:27.535Z,16.1
2018-09-03T01:52:27.552Z,16.24
2018-09-03T01:53:27.554Z,16.13
2018-09-03T01:55:47.293Z,16.13
2018-09-03T02:00:17.363Z,16.16
2018-09-03T02:01:17.431Z,16.17
2018-09-03T02:02:17.370Z,16.17
2018-09-03T02:03:17.353Z,16.13
2018-09-03T02:04:17.588Z,16.13
2018-09-03T02:05:17.424Z,16.18
2018-09-03T02:06:17.369Z,16.17
2018-09-03T02:07:17.380Z,16.05
2018-09-03T02:08:17.446Z,16.06
2018-09-03T02:09:17.349Z,16
2018-09-03T02:10:17.409Z,16.06
2018-09-03T02:11:17.361Z,16
2018-09-03T02:12:17.401Z,15.99
2018-09-03T02:13:17.413Z,16.02
2018-09-03T02:14:17.384Z,16.05
2018-09-03T02:15:17.368Z,16.05
2018-09-03T02:16:17.364Z,15.99
2018-09-03T02:17:17.368Z,15.96
2018-09-03T02:18:17.396Z,16
2018-09-03T02:19:17.386Z,15.98
2018-09-03T02:20:17.397Z,15.98
2018-09-03T02:21:17.398Z,16.03
2018-09-03T02:22:17.376Z,15.99
2018-09-03T02:23:17.374Z,15.99
2018-09-03T02:24:17.386Z,16.02
2018-09-03T02:25:17.418Z,16
2018-09-03T02:26:17.425Z,16.06
2018-09-03T02:27:17.398Z,16.06
2018-09-03T02:28:17.414Z,16.02
2018-09-03T02:29:17.412Z,15.98
2018-09-03T02:30:17.394Z,16
2018-09-03T02:31:17.604Z,16.12
2018-09-03T02:32:17.410Z,16.09
2018-09-03T02:33:17.425Z,16.18
2018-09-03T02:34:17.384Z,16.1
2018-09-03T02:35:30.732Z,16
2018-09-03T02:36:17.429Z,16.1
2018-09-03T02:37:17.395Z,16.09
2018-09-03T02:38:17.441Z,16.12
2018-09-03T02:39:17.415Z,16.17
2018-09-03T02:40:17.413Z,16.13
2018-09-03T02:41:17.540Z,16.13
2018-09-03T02:42:17.402Z,16.16
2018-09-03T02:43:17.406Z,16.13
2018-09-03T02:44:17.442Z,16.13
2018-09-03T02:45:17.418Z,16.1
2018-09-03T02:46:17.457Z,16.21
2018-09-03T02:47:17.500Z,16.13
2018-09-03T02:48:17.463Z,16.13
2018-09-03T02:49:17.445Z,16.13
2018-09-03T02:50:17.426Z,16.16
2018-09-03T02:51:17.474Z,16.18
2018-09-03T02:52:17.440Z,16.13
2018-09-03T02:53:17.472Z,16.16
2018-09-03T02:54:17.472Z,16.16
2018-09-03T02:55:17.417Z,16.17
2018-09-03T02:56:17.459Z,16.17
2018-09-03T02:57:17.435Z,16.16
2018-09-03T02:58:17.436Z,16.21
2018-09-03T02:59:17.507Z,16.25
2018-09-03T03:00:17.459Z,16.21
2018-09-03T03:01:17.484Z,16.1
2018-09-03T03:02:17.468Z,16.12
2018-09-03T03:03:17.474Z,16.25
2018-09-03T03:04:17.490Z,16.22
2018-09-03T03:05:17.849Z,16.18
2018-09-03T03:06:17.449Z,16.16
2018-09-03T03:07:17.475Z,16.21
2018-09-03T03:08:17.511Z,16.21
2018-09-03T03:09:17.502Z,16.17
2018-09-03T03:10:17.461Z,16.17
2018-09-03T03:16:57.181Z,16.06
2018-09-03T03:17:57.204Z,16.16
2018-09-03T03:18:57.227Z,16.17
2018-09-03T03:19:57.214Z,16.13
2018-09-03T03:20:57.177Z,16.13
2018-09-03T03:21:57.189Z,16.21
2018-09-03T03:22:57.162Z,16.13
2018-09-03T03:23:57.163Z,16.24
2018-09-03T03:24:57.185Z,16.18
2018-09-03T03:25:57.206Z,16.12
2018-09-03T03:26:57.142Z,16.13
2018-09-03T03:27:57.184Z,16.13
2018-09-03T03:28:57.120Z,16.17
2018-09-03T03:29:57.170Z,16.18
2018-09-03T03:30:57.173Z,16.12
2018-09-03T03:31:57.184Z,16.17
2018-09-03T03:32:57.184Z,16.1
2018-09-03T03:33:57.303Z,16.13
2018-09-03T03:34:57.194Z,16.16
2018-09-03T03:35:57.236Z,16.16
2018-09-03T03:36:57.152Z,16.12
2018-09-03T03:37:57.147Z,16.16
2018-09-03T03:38:57.150Z,16.17
2018-09-03T03:39:57.197Z,16.12
2018-09-03T03:40:57.204Z,16.12
2018-09-03T03:41:57.173Z,16.22
2018-09-03T03:42:57.180Z,16.21
2018-09-03T03:43:57.184Z,16.24
2018-09-03T03:44:57.203Z,16.16
2018-09-03T03:45:57.184Z,16.13
2018-09-03T03:46:57.171Z,16.17
2018-09-03T03:47:57.184Z,16.18
2018-09-03T03:48:57.184Z,16.18
2018-09-03T03:49:57.198Z,16.26
2018-09-03T03:50:57.166Z,16.13
2018-09-03T03:51:57.170Z,16.28
2018-09-03T03:52:57.210Z,16.21
2018-09-03T03:53:57.539Z,16.26
2018-09-03T03:54:57.257Z,16.29
2018-09-03T03:55:57.198Z,16.17
2018-09-03T03:56:57.254Z,16.17
2018-09-03T03:57:57.214Z,16.13
2018-09-03T03:58:57.182Z,16.1
2018-09-03T03:59:57.218Z,16.09
2018-09-03T04:00:57.200Z,16.18
2018-09-03T04:01:57.202Z,16.17
2018-09-03T04:02:57.220Z,16.12
2018-09-03T04:03:57.216Z,16.13
2018-09-03T04:04:57.257Z,16.17
2018-09-03T04:05:57.242Z,16.24
2018-09-03T04:06:57.219Z,16.34
2018-09-03T04:07:57.223Z,16.22
2018-09-03T04:08:57.807Z,16.18
2018-09-03T04:09:57.255Z,16.32
2018-09-03T04:10:57.228Z,16.24
2018-09-03T04:11:57.232Z,16.31
2018-09-03T04:12:57.315Z,16.32
2018-09-03T04:13:57.278Z,16.34
2018-09-03T04:14:57.220Z,16.28
2018-09-03T04:15:57.230Z,16.28
2018-09-03T04:16:57.243Z,16.26
2018-09-03T04:17:57.242Z,16.29
2018-09-03T04:18:57.217Z,16.17
2018-09-03T04:19:57.248Z,16.32
2018-09-03T04:20:57.567Z,16.25
2018-09-03T04:21:57.249Z,16.37
2018-09-03T04:22:57.447Z,16.25
2018-09-03T04:23:57.287Z,16.18
2018-09-03T04:24:57.253Z,16.16
2018-09-03T04:25:57.219Z,16.17
2018-09-03T04:26:57.263Z,16.18
2018-09-03T04:27:57.243Z,16.26
2018-09-03T04:28:57.374Z,16.18
2018-09-03T04:29:57.254Z,16.28
2018-09-03T04:30:57.262Z,16.17
2018-09-03T04:31:57.262Z,16.31
2018-09-03T04:32:57.239Z,16.31
2018-09-03T04:33:57.269Z,16.28
2018-09-03T04:34:57.281Z,16.32
2018-09-03T04:35:57.323Z,16.29
2018-09-03T04:36:57.296Z,16.29
2018-09-03T04:37:57.296Z,16.31
2018-09-03T04:38:57.349Z,16.26
2018-09-03T04:39:57.281Z,16.18
2018-09-03T04:40:57.263Z,16.26
2018-09-03T04:41:57.259Z,16.18
2018-09-03T04:42:57.263Z,16.22
2018-09-03T04:43:57.302Z,16.13
2018-09-03T04:44:57.343Z,16.12
2018-09-03T04:45:57.248Z,16.12
2018-09-03T04:46:57.289Z,16.16
2018-09-03T04:47:57.369Z,16.16
2018-09-03T04:48:57.267Z,16.25
2018-09-03T04:49:57.341Z,16.13
2018-09-03T04:50:57.593Z,16.17
2018-09-03T04:51:57.285Z,16.18
2018-09-03T04:52:57.293Z,16.16
2018-09-03T04:53:57.269Z,16.29
2018-09-03T04:54:57.288Z,16.24
2018-09-03T04:55:57.277Z,16.25
2018-09-03T04:56:57.284Z,16.29
2018-09-03T04:57:57.335Z,16.31
2018-09-03T04:58:57.314Z,16.18
2018-09-03T04:59:57.277Z,16.17
2018-09-03T05:00:57.315Z,16.17
2018-09-03T05:01:57.327Z,16.09
2018-09-03T05:02:57.304Z,16.18
2018-09-03T05:03:57.337Z,16.18
2018-09-03T05:04:57.413Z,16.17
2018-09-03T05:05:57.383Z,16.26
2018-09-03T05:06:57.349Z,16.17
2018-09-03T05:07:57.288Z,16.18
2018-09-03T05:08:57.334Z,16.16
2018-09-03T05:09:57.304Z,16.13
2018-09-03T05:10:57.349Z,16.13
2018-09-03T05:11:57.386Z,16.13
2018-09-03T05:12:57.357Z,16.13
2018-09-03T05:13:57.407Z,16.16
2018-09-03T05:14:57.342Z,16.25
2018-09-03T05:15:57.311Z,16.22
2018-09-03T05:16:57.313Z,16.1
2018-09-03T05:17:57.338Z,16.31
2018-09-03T05:18:57.343Z,16.26
2018-09-03T05:19:58.780Z,16.28
2018-09-03T05:20:57.311Z,16.28
2018-09-03T05:21:57.330Z,16.28
2018-09-03T05:22:57.318Z,16.17
2018-09-03T05:23:57.325Z,16.31
2018-09-03T05:24:57.370Z,16.39
2018-09-03T05:25:57.371Z,16.32
2018-09-03T05:26:57.350Z,16.28
2018-09-03T05:27:57.322Z,16.32
2018-09-03T05:28:57.359Z,16.32
2018-09-03T05:29:57.406Z,16.39
2018-09-03T05:30:57.684Z,16.41
2018-09-03T05:31:57.360Z,16.43
2018-09-03T05:32:57.458Z,16.36
2018-09-03T05:33:57.320Z,16.25
2018-09-03T05:34:57.375Z,16.39
2018-09-03T05:35:57.337Z,16.32
2018-09-03T05:36:57.363Z,16.43
2018-09-03T05:37:57.458Z,16.44
2018-09-03T05:38:57.361Z,16.37
2018-09-03T05:39:57.671Z,16.34
2018-09-03T05:40:57.371Z,16.39
2018-09-03T05:41:57.414Z,16.25
2018-09-03T05:42:57.504Z,16.39
2018-09-03T05:43:57.454Z,16.43
2018-09-03T05:44:57.710Z,16.44
2018-09-03T05:45:57.419Z,16.46
2018-09-03T05:46:58.618Z,16.39
2018-09-03T05:47:57.370Z,16.47
2018-09-03T05:48:57.742Z,16.43
2018-09-03T05:49:57.439Z,16.43
2018-09-03T05:50:57.375Z,16.4
2018-09-03T05:51:57.368Z,16.41
2018-09-03T05:52:57.380Z,16.5
2018-09-03T05:53:57.395Z,16.5
2018-09-03T05:54:57.405Z,16.41
2018-09-03T05:55:57.399Z,16.55
2018-09-03T05:56:57.380Z,16.4
2018-09-03T05:57:57.733Z,16.49
2018-09-03T05:58:57.391Z,16.54
2018-09-03T05:59:57.401Z,16.47
2018-09-03T06:00:58.035Z,16.49
2018-09-03T06:01:57.414Z,16.46
2018-09-03T06:02:57.411Z,16.55
2018-09-03T06:03:57.456Z,16.59
2018-09-03T06:04:57.561Z,16.46
2018-09-03T06:05:58.609Z,16.44
2018-09-03T06:07:00.578Z,16.41
2018-09-03T06:07:57.428Z,16.39
2018-09-03T06:08:57.430Z,16.49
2018-09-03T06:09:57.459Z,16.51
2018-09-03T06:10:57.482Z,16.55
2018-09-03T06:16:14.720Z,16.51
2018-09-03T06:16:26.989Z,16.64
2018-09-03T06:17:28.397Z,16.69
2018-09-03T06:18:27.726Z,16.65
2018-09-03T06:19:26.971Z,16.73
2018-09-03T06:20:27.079Z,16.76
2018-09-03T06:21:27.019Z,16.68
2018-09-03T06:22:26.991Z,16.68
2018-09-03T06:23:27.038Z,16.66
2018-09-03T06:24:26.979Z,16.66
2018-09-03T06:25:26.997Z,16.72
2018-09-03T06:26:26.992Z,16.72
2018-09-03T06:27:26.998Z,16.73
2018-09-03T06:28:27.006Z,16.72
2018-09-03T06:29:26.966Z,16.69
2018-09-03T06:30:27.018Z,16.76
2018-09-03T06:31:27.063Z,16.61
2018-09-03T06:32:26.991Z,16.66
2018-09-03T06:33:27.008Z,16.66
2018-09-03T06:34:27.004Z,16.66
2018-09-03T06:35:27.043Z,16.57
2018-09-03T06:36:27.030Z,16.57
2018-09-03T06:37:27.007Z,16.58
2018-09-03T06:38:27.036Z,16.61
2018-09-03T06:39:27.001Z,16.69
2018-09-03T06:40:27.047Z,16.68
2018-09-03T06:41:27.027Z,16.69
2018-09-03T06:42:26.980Z,16.64
2018-09-03T06:43:27.082Z,16.5
2018-09-03T06:44:27.012Z,16.68
2018-09-03T06:45:27.045Z,16.65
2018-09-03T06:46:27.010Z,16.66
2018-09-03T06:47:27.335Z,16.68
2018-09-03T06:48:27.021Z,16.69
2018-09-03T06:49:27.033Z,16.62
2018-09-03T06:50:27.001Z,16.58
2018-09-03T06:51:27.026Z,16.68
2018-09-03T06:52:27.018Z,16.57
2018-09-03T06:53:27.177Z,16.68
2018-09-03T06:54:27.079Z,16.57
2018-09-03T06:55:27.111Z,16.59
2018-09-03T06:56:27.076Z,16.61
2018-09-03T06:57:27.087Z,16.65
2018-09-03T06:58:27.095Z,16.69
2018-09-03T06:59:27.064Z,16.76
2018-09-03T07:00:27.037Z,16.72
2018-09-03T07:01:27.081Z,16.76
2018-09-03T07:02:27.102Z,16.76
2018-09-03T07:03:27.034Z,16.82
2018-09-03T07:04:27.066Z,16.76
2018-09-03T07:05:27.105Z,16.8
2018-09-03T07:06:27.085Z,16.87
2018-09-03T07:07:27.054Z,16.8
2018-09-03T07:08:27.087Z,16.87
2018-09-03T07:09:27.081Z,16.86
2018-09-03T07:10:27.087Z,16.86
2018-09-03T07:11:27.139Z,16.82
2018-09-03T07:12:27.076Z,16.86
2018-09-03T07:13:27.067Z,16.82
2018-09-03T07:14:27.090Z,17.02
2018-09-03T07:15:27.137Z,16.97
2018-09-03T07:16:27.079Z,16.95
2018-09-03T07:17:27.153Z,16.94
2018-09-03T07:18:27.083Z,17.07
2018-09-03T07:19:27.059Z,16.97
2018-09-03T07:20:27.174Z,16.83
2018-09-03T07:21:27.108Z,16.95
2018-09-03T07:22:27.121Z,17.09
2018-09-03T07:23:27.085Z,17.1
2018-09-03T07:24:27.089Z,17.16
2018-09-03T07:25:27.303Z,17.12
2018-09-03T07:26:27.073Z,17.07
2018-09-03T07:27:27.107Z,17.12
2018-09-03T07:28:27.169Z,17.12
2018-09-03T07:29:27.109Z,17.16
2018-09-03T07:30:27.132Z,17.13
2018-09-03T07:31:27.090Z,17.19
2018-09-03T07:32:27.081Z,17.14
2018-09-03T07:33:27.125Z,17.17
2018-09-03T07:34:27.083Z,17.27
2018-09-03T07:35:27.102Z,17.3
2018-09-03T07:36:27.101Z,17.2
2018-09-03T07:37:27.103Z,17.27
2018-09-03T07:38:27.136Z,17.31
2018-09-03T07:39:27.192Z,17.37
2018-09-03T07:40:27.135Z,17.46
2018-09-03T07:41:27.144Z,17.56
2018-09-03T07:42:27.136Z,17.56
2018-09-03T07:43:27.114Z,17.49
2018-09-03T07:44:27.115Z,17.49
2018-09-03T07:45:27.130Z,17.52
2018-09-03T07:46:27.103Z,17.57
2018-09-03T07:47:27.133Z,17.66
2018-09-03T07:48:27.509Z,17.65
2018-09-03T07:49:27.660Z,17.54
2018-09-03T07:50:28.160Z,17.56
2018-09-03T07:51:27.582Z,17.63
2018-09-03T07:52:27.586Z,17.53
2018-09-03T07:53:27.117Z,17.66
2018-09-03T07:54:27.115Z,17.73
2018-09-03T07:55:27.229Z,17.73
2018-09-03T07:56:27.165Z,17.69
2018-09-03T07:57:27.136Z,17.75
2018-09-03T07:58:27.173Z,17.78
2018-09-03T07:59:27.151Z,17.75
2018-09-03T08:00:27.192Z,17.66
2018-09-03T08:01:27.215Z,17.75
2018-09-03T08:02:27.135Z,17.75
2018-09-03T08:03:27.157Z,17.75
2018-09-03T08:04:27.176Z,17.75
2018-09-03T08:05:27.236Z,17.73
2018-09-03T08:06:27.259Z,17.73
2018-09-03T08:07:27.294Z,17.87
2018-09-03T08:08:27.147Z,17.9
2018-09-03T08:09:27.210Z,17.88
2018-09-03T08:10:27.199Z,17.93
2018-09-03T08:11:27.194Z,17.88
2018-09-03T08:12:28.151Z,17.82
2018-09-03T08:13:27.173Z,17.86
2018-09-03T08:14:27.191Z,17.79
2018-09-03T08:15:27.290Z,17.87
2018-09-03T08:16:27.196Z,17.87
2018-09-03T08:17:27.555Z,17.88
2018-09-03T08:18:27.186Z,17.91
2018-09-03T08:19:27.225Z,17.97
2018-09-03T08:20:27.693Z,17.95
2018-09-03T08:21:27.272Z,17.82
2018-09-03T08:22:27.520Z,17.93
2018-09-03T08:23:27.241Z,17.8
2018-09-03T08:24:27.245Z,17.88
2018-09-03T08:25:27.199Z,17.8
2018-09-03T08:26:27.229Z,17.93
2018-09-03T08:27:27.165Z,18.03
2018-09-03T08:28:27.175Z,18.05
2018-09-03T08:29:27.272Z,17.87
2018-09-03T08:30:27.258Z,18
2018-09-03T08:31:27.190Z,18.08
2018-09-03T08:32:27.206Z,17.95
2018-09-03T08:33:27.204Z,18.05
2018-09-03T08:34:27.201Z,17.98
2018-09-03T08:35:27.256Z,18
2018-09-03T08:36:27.185Z,18.13
2018-09-03T08:37:27.200Z,18.37
2018-09-03T08:38:27.205Z,18.52
2018-09-03T08:39:27.202Z,18.73
2018-09-03T08:40:27.398Z,18.68
2018-09-03T08:41:27.351Z,18.61
2018-09-03T08:42:27.334Z,18.76
2018-09-03T08:43:27.312Z,18.68
2018-09-03T08:44:27.246Z,19.04
2018-09-03T08:45:27.995Z,18.97
2018-09-03T08:46:27.252Z,18.97
2018-09-03T08:47:27.243Z,18.85
2018-09-03T08:48:27.455Z,18.94
2018-09-03T08:49:27.239Z,18.83
2018-09-03T08:50:27.569Z,18.85
2018-09-03T08:51:27.218Z,18.92
2018-09-03T08:52:27.595Z,18.81
2018-09-03T08:53:27.225Z,19.04
2018-09-03T08:54:27.250Z,19.09
2018-09-03T08:55:27.274Z,18.82
2018-09-03T08:57:31.834Z,18.78
2018-09-03T08:57:44.474Z,18.78
2018-09-03T08:58:44.845Z,18.74
2018-09-03T08:59:44.410Z,18.68
2018-09-03T09:00:44.441Z,18.85
2018-09-03T09:01:44.492Z,18.88
2018-09-03T09:02:44.779Z,18.97
2018-09-03T09:03:44.428Z,19.12
2018-09-03T09:04:44.406Z,19.17
2018-09-03T09:05:44.536Z,19.27
2018-09-03T09:06:44.414Z,19.37
2018-09-03T09:07:44.431Z,19.29
2018-09-03T09:08:44.432Z,19.32
2018-09-03T09:09:44.510Z,19.37
2018-09-03T09:10:44.410Z,19.32
2018-09-03T09:11:44.611Z,19.42
2018-09-03T09:12:44.421Z,19.47
2018-09-03T09:13:44.490Z,19.57
2018-09-03T09:14:44.499Z,19.75
2018-09-03T09:15:44.491Z,19.81
2018-09-03T09:16:44.450Z,19.77
2018-09-03T09:17:44.594Z,19.74
2018-09-03T09:18:44.458Z,19.72
2018-09-03T09:19:44.464Z,19.57
2018-09-03T09:20:44.857Z,19.48
2018-09-03T09:21:44.460Z,19.37
2018-09-03T09:22:44.415Z,19.23
2018-09-03T09:23:44.470Z,19.23
2018-09-03T09:28:13.915Z,19.57
2018-09-03T09:29:13.516Z,19.6
2018-09-03T09:30:13.514Z,19.57
2018-09-03T09:31:13.427Z,19.35
2018-09-03T09:32:13.429Z,19.59
2018-09-03T09:33:13.467Z,19.71
2018-09-03T09:34:13.433Z,19.6
2018-09-03T09:35:13.444Z,19.75
2018-09-03T09:36:13.484Z,19.7
2018-09-03T09:37:13.469Z,19.9
2018-09-03T09:38:13.526Z,19.94
2018-09-03T09:39:13.446Z,20.11
2018-09-03T09:40:13.451Z,20.11
2018-09-03T09:41:13.442Z,20.03
2018-09-03T09:42:13.422Z,20.17
2018-09-03T09:43:13.656Z,20.3
2018-09-03T09:44:13.435Z,20.26
2018-09-03T09:45:13.433Z,20.11
2018-09-03T09:46:13.445Z,19.82
2018-09-03T09:47:13.457Z,20.08
2018-09-03T09:48:13.468Z,20.22
2018-09-03T09:49:13.468Z,20.24
2018-09-03T09:50:13.518Z,20.32
2018-09-03T09:51:13.595Z,20.26
2018-09-03T09:52:13.459Z,20.26
2018-09-03T09:53:13.470Z,20.22
2018-09-03T09:54:13.513Z,20.26
2018-09-03T09:55:13.591Z,19.96
2018-09-03T09:59:43.130Z,19.49
2018-09-03T10:00:43.094Z,19.66
2018-09-03T10:01:43.083Z,19.59
2018-09-03T10:02:43.755Z,19.57
2018-09-03T10:03:43.185Z,19.62
2018-09-03T10:04:43.133Z,19.59
2018-09-03T10:05:43.163Z,19.67
2018-09-03T10:06:43.087Z,19.52
2018-09-03T10:07:43.119Z,19.71
2018-09-03T10:08:43.110Z,19.93
2018-09-03T10:09:43.097Z,19.84
2018-09-03T10:10:43.137Z,19.96
2018-09-03T10:11:43.148Z,19.77
2018-09-03T10:12:43.136Z,19.7
2018-09-03T10:13:43.124Z,19.77
2018-09-03T10:14:43.097Z,19.71
2018-09-03T10:15:43.086Z,19.81
2018-09-03T10:16:43.319Z,19.78
2018-09-03T10:17:43.088Z,19.64
2018-09-03T10:18:43.104Z,19.53
2018-09-03T10:19:43.772Z,19.77
2018-09-03T10:20:43.138Z,19.71
2018-09-03T10:21:43.060Z,19.74
2018-09-03T10:22:43.109Z,19.96
2018-09-03T10:23:43.107Z,19.92
2018-09-03T10:24:43.121Z,19.64
2018-09-03T10:25:43.104Z,19.59
2018-09-03T10:26:43.096Z,19.62
2018-09-03T10:27:43.099Z,19.49
2018-09-03T10:28:43.105Z,19.64
2018-09-03T10:29:43.108Z,19.6
2018-09-03T10:30:43.090Z,19.47
2018-09-03T10:31:43.090Z,19.53
2018-09-03T10:32:43.178Z,19.52
2018-09-03T10:33:44.822Z,19.48
2018-09-03T10:34:43.465Z,19.45
2018-09-03T10:35:43.845Z,19.44
2018-09-03T10:36:43.100Z,19.55
2018-09-03T10:37:43.175Z,19.41
2018-09-03T10:38:43.320Z,19.38
2018-09-03T10:39:43.139Z,19.29
2018-09-03T10:40:43.187Z,19.24
2018-09-03T10:41:43.121Z,19.3
2018-09-03T10:42:43.148Z,19.44
2018-09-03T10:43:43.143Z,19.45
2018-09-03T10:44:43.179Z,19.37
2018-09-03T10:45:43.124Z,19.32
2018-09-03T10:48:02.707Z,19.3
2018-09-03T10:49:05.534Z,19.17
2018-09-03T10:50:02.668Z,19.24
2018-09-03T10:51:02.781Z,19.26
2018-09-03T10:52:02.674Z,19.3
2018-09-03T10:53:02.716Z,19.35
2018-09-03T10:54:02.696Z,19.44
2018-09-03T10:55:02.673Z,19.45
2018-09-03T10:56:02.803Z,19.38
2018-09-03T10:57:02.717Z,19.29
2018-09-03T10:58:02.691Z,19.44
2018-09-03T10:59:02.749Z,19.42
2018-09-03T11:00:02.694Z,19.52
2018-09-03T11:01:02.702Z,19.3
2018-09-03T11:02:02.754Z,19.45
2018-09-03T11:03:04.117Z,19.29
2018-09-03T11:04:02.740Z,19.27
2018-09-03T11:09:20.844Z,19.41
2018-09-03T11:09:37.077Z,19.52
2018-09-03T11:10:33.110Z,19.49
2018-09-03T11:11:33.083Z,19.45
2018-09-03T11:12:33.118Z,19.39
2018-09-03T11:13:33.101Z,19.32
2018-09-03T11:14:33.070Z,19.38
2018-09-03T11:15:33.087Z,19.41
2018-09-03T11:16:33.078Z,19.41
2018-09-03T11:17:33.122Z,19.55
2018-09-03T11:18:33.059Z,19.56
2018-09-03T11:19:33.068Z,19.64
2018-09-03T11:20:33.207Z,19.63
2018-09-03T11:21:33.330Z,19.53
2018-09-03T11:22:33.298Z,19.57
2018-09-03T11:23:33.097Z,19.56
2018-09-03T11:24:33.203Z,19.52
2018-09-03T11:25:33.143Z,19.56
2018-09-03T11:26:33.096Z,19.75
2018-09-03T11:27:33.090Z,19.59
2018-09-03T11:28:33.167Z,19.72
2018-09-03T11:29:33.163Z,19.79
2018-09-03T11:30:33.110Z,19.89
2018-09-03T11:31:33.153Z,19.81
2018-09-03T11:32:33.124Z,19.9
2018-09-03T11:33:33.567Z,19.74
2018-09-03T11:34:33.103Z,19.75
2018-09-03T11:35:33.096Z,19.72
2018-09-03T11:36:33.247Z,19.78
2018-09-03T11:37:33.132Z,19.9
2018-09-03T11:38:33.187Z,19.78
2018-09-03T11:39:33.103Z,19.67
2018-09-03T11:40:33.140Z,19.77
2018-09-03T11:41:33.114Z,19.9
2018-09-03T11:42:33.181Z,19.82
2018-09-03T11:43:33.155Z,19.94
2018-09-03T11:44:33.154Z,19.94
2018-09-03T11:45:33.147Z,19.82
2018-09-03T11:46:33.193Z,19.96
2018-09-03T11:47:33.144Z,19.94
2018-09-03T11:48:33.184Z,19.99
2018-09-03T11:49:33.174Z,20
2018-09-03T11:50:33.161Z,19.82
2018-09-03T11:51:33.134Z,19.89
2018-09-03T11:52:33.179Z,19.94
2018-09-03T11:53:33.180Z,19.78
2018-09-03T11:54:33.315Z,19.84
2018-09-03T11:55:33.181Z,19.77
2018-09-03T11:56:33.132Z,19.78
2018-09-03T11:57:33.206Z,19.92
2018-09-03T11:58:33.156Z,19.9
2018-09-03T11:59:33.235Z,19.94
2018-09-03T12:00:33.309Z,20.08
2018-09-03T12:01:33.142Z,20.11
2018-09-03T12:02:33.194Z,20.08
2018-09-03T12:03:33.145Z,20.04
2018-09-03T12:10:12.136Z,20.12
2018-09-03T12:11:12.079Z,20.07
2018-09-03T12:12:12.246Z,20.21
2018-09-03T12:13:12.094Z,20.22
2018-09-03T12:14:12.078Z,20.22
2018-09-03T12:15:12.101Z,20.22
2018-09-03T12:16:12.149Z,20.3
2018-09-03T12:17:12.087Z,20.48
2018-09-03T12:18:12.118Z,20.56
2018-09-03T12:19:12.086Z,20.59
2018-09-03T12:20:12.120Z,20.53
2018-09-03T12:21:12.260Z,20.63
2018-09-03T12:22:12.086Z,20.58
2018-09-03T12:23:12.159Z,20.48
2018-09-03T12:24:12.107Z,20.49
2018-09-03T12:25:12.100Z,20.46
2018-09-03T12:26:12.108Z,20.21
2018-09-03T12:27:12.126Z,20.44
2018-09-03T12:28:12.114Z,20.44
2018-09-03T12:29:12.154Z,20.55
2018-09-03T12:30:12.091Z,20.63
2018-09-03T12:31:12.211Z,20.66
2018-09-03T12:32:12.114Z,20.63
2018-09-03T12:33:12.128Z,20.58
2018-09-03T12:34:12.121Z,20.67
2018-09-03T12:35:12.131Z,20.39
2018-09-03T12:36:12.118Z,20.26
2018-09-03T12:37:12.209Z,20.36
2018-09-03T12:38:12.146Z,20.49
2018-09-03T12:39:12.139Z,20.52
2018-09-03T12:40:12.131Z,20.39
2018-09-03T12:41:12.146Z,20.34
2018-09-03T12:42:12.130Z,20.4
2018-09-03T12:43:12.152Z,20.42
2018-09-03T12:44:12.197Z,20.52
2018-09-03T12:45:12.141Z,20.63
2018-09-03T12:46:12.206Z,20.4
2018-09-03T12:47:12.144Z,20.4
2018-09-03T12:48:12.181Z,20.49
2018-09-03T12:49:12.138Z,20.48
2018-09-03T12:50:12.268Z,20.46
2018-09-03T12:51:12.279Z,20.48
2018-09-03T12:52:12.147Z,20.6
2018-09-03T12:53:12.142Z,20.66
2018-09-03T12:54:12.260Z,20.7
2018-09-03T12:55:12.128Z,20.71
2018-09-03T12:56:12.144Z,20.88
2018-09-03T12:57:12.210Z,20.86
2018-09-03T12:58:12.149Z,20.86
2018-09-03T12:59:12.186Z,20.71
2018-09-03T13:00:12.153Z,20.74
2018-09-03T13:01:12.139Z,20.73
2018-09-03T13:02:12.142Z,20.64
2018-09-03T13:03:12.260Z,20.77
2018-09-03T13:04:12.188Z,20.77
2018-09-03T13:05:12.180Z,20.83
2018-09-03T13:06:12.301Z,20.88
2018-09-03T13:07:12.177Z,20.96
2018-09-03T13:08:12.171Z,20.95
2018-09-03T13:09:12.176Z,20.93
2018-09-03T13:10:12.166Z,21.03
2018-09-03T13:11:12.153Z,20.98
2018-09-03T13:12:12.160Z,20.93
2018-09-03T13:13:12.184Z,20.95
2018-09-03T13:14:12.175Z,20.96
2018-09-03T13:15:12.202Z,21.01
2018-09-03T13:16:12.153Z,21.07
2018-09-03T13:17:12.265Z,21.08
2018-09-03T13:18:12.205Z,21.08
2018-09-03T13:19:12.278Z,21.1
2018-09-03T13:20:12.212Z,20.88
2018-09-03T13:21:12.236Z,20.92
2018-09-03T13:22:12.296Z,20.8
2018-09-03T13:23:17.325Z,21.03
2018-09-03T13:24:20.425Z,21
2018-09-03T13:25:15.046Z,21.05
2018-09-03T13:26:13.544Z,21
2018-09-03T13:27:13.586Z,20.98
2018-09-03T13:28:13.649Z,21.03